Milton Center, Ohio
Current Conditions -  °F | °C
As of 3:52 AM on Saturday 25 Oct 2014 (Local Time) from KTOL Reporting Station
Haze Haze  
Wind Chill: 46°   Ceiling: Unl
Heat Index: 49°   Visibility: 5mi
Dew Point: 47°   Wind: 7mph
Humidity: 93%   Direction: 220°SW
Pressure: 29.92"   Gusts: NA
Location:  41.3°N, 83.83°W
Report Text: KTOL 250752Z 22006KT 5SM BR SCT090 09/08 A2992 RMK AO2 SLP134 T00940083
Loading
Personal Weather Stations






























Interactive Weather Map
Tropical Storm Tracking
New forecast layout! Learn more

10-Day Weather Forecast

Advertisements
Track Severe Weather on mobile